createdAt,value
2023-12-02T00:00:26.145Z,74.86
2023-12-02T00:02:53.294Z,75.44
2023-12-02T00:05:20.159Z,75.77
2023-12-02T00:07:46.956Z,75.24
2023-12-02T00:10:13.765Z,74.98
2023-12-02T00:12:40.601Z,75.00
2023-12-02T00:15:08.404Z,74.66
2023-12-02T00:17:35.427Z,74.84
2023-12-02T00:20:02.635Z,75.25
2023-12-02T00:22:30.949Z,75.05
2023-12-02T00:24:57.950Z,75.34
2023-12-02T00:27:24.680Z,75.57
2023-12-02T00:29:51.568Z,76.44
2023-12-02T00:32:28.240Z,75.90
2023-12-02T00:34:57.713Z,77.12
2023-12-02T00:37:24.643Z,76.79
2023-12-02T00:39:51.428Z,76.27
2023-12-02T00:42:18.224Z,75.77
2023-12-02T00:44:45.077Z,76.38
2023-12-02T00:47:11.836Z,75.82
2023-12-02T00:49:38.598Z,76.12
2023-12-02T00:52:05.486Z,75.29
2023-12-02T00:54:35.259Z,75.04
2023-12-02T00:57:02.244Z,75.80
2023-12-02T00:59:29.069Z,77.26
2023-12-02T01:01:55.849Z,75.46
2023-12-02T01:04:22.759Z,76.17
2023-12-02T01:06:49.501Z,76.56
2023-12-02T01:09:16.566Z,76.68
2023-12-02T01:11:43.480Z,76.05
2023-12-02T01:14:10.389Z,76.24
2023-12-02T01:16:37.090Z,75.83
2023-12-02T01:19:03.818Z,75.52
2023-12-02T01:21:31.137Z,76.07
2023-12-02T01:23:58.855Z,75.72
2023-12-02T01:26:25.736Z,76.67
2023-12-02T01:28:52.536Z,76.36
2023-12-02T01:31:19.440Z,75.76
2023-12-02T01:33:46.227Z,75.96
2023-12-02T01:36:15.940Z,75.80
2023-12-02T01:38:43.315Z,76.14
2023-12-02T01:41:10.079Z,76.90
2023-12-02T01:43:38.728Z,78.57
2023-12-02T01:46:05.890Z,79.00
2023-12-02T01:48:37.180Z,77.25
2023-12-02T01:51:05.432Z,78.53
2023-12-02T01:53:32.496Z,77.75
2023-12-02T01:55:59.825Z,78.44
2023-12-02T01:58:27.387Z,78.39
2023-12-02T02:00:54.233Z,78.64
2023-12-02T02:03:21.134Z,78.00
2023-12-02T02:05:48.356Z,78.83
2023-12-02T02:08:15.439Z,78.52
2023-12-02T02:10:42.144Z,77.97
2023-12-02T02:13:08.886Z,77.15
2023-12-02T02:15:35.943Z,77.25
2023-12-02T02:18:03.028Z,77.15
2023-12-02T02:20:53.978Z,76.10
2023-12-02T02:23:22.817Z,75.67
2023-12-02T02:25:52.659Z,75.58
2023-12-02T02:28:24.595Z,76.11
2023-12-02T02:30:51.882Z,75.34
2023-12-02T02:33:19.524Z,76.06
2023-12-02T02:35:46.499Z,75.86
2023-12-02T02:38:13.340Z,75.82
2023-12-02T02:40:40.443Z,74.62
2023-12-02T02:43:07.301Z,75.06
2023-12-02T02:45:34.213Z,74.39
2023-12-02T02:48:01.139Z,74.19
2023-12-02T02:50:28.876Z,74.57
2023-12-02T02:52:55.623Z,74.80
2023-12-02T02:55:22.300Z,73.92
2023-12-02T02:57:49.023Z,74.74
2023-12-02T03:00:16.235Z,75.33
2023-12-02T03:02:43.289Z,74.59
2023-12-02T03:05:10.065Z,74.51
2023-12-02T03:07:37.045Z,74.69
2023-12-02T03:10:04.108Z,74.75
2023-12-02T03:12:32.138Z,74.59
2023-12-02T03:14:58.951Z,73.34
2023-12-02T03:17:25.722Z,72.08
2023-12-02T03:19:52.984Z,72.76
2023-12-02T03:22:19.992Z,72.89
2023-12-02T03:24:47.445Z,72.25
2023-12-02T03:27:14.260Z,72.82
2023-12-02T03:29:40.977Z,72.25
2023-12-02T03:32:07.702Z,72.69
2023-12-02T03:34:34.828Z,72.32
2023-12-02T03:37:01.847Z,71.71
2023-12-02T03:39:28.647Z,71.78
2023-12-02T03:41:55.470Z,71.65
2023-12-02T03:44:22.271Z,71.69
2023-12-02T03:46:49.044Z,71.82
2023-12-02T03:49:15.930Z,72.20
2023-12-02T03:51:42.762Z,71.72
2023-12-02T03:54:09.613Z,72.99
2023-12-02T03:56:38.551Z,72.31
2023-12-02T03:59:05.314Z,71.11
2023-12-02T04:01:32.608Z,71.53
2023-12-02T04:03:59.351Z,71.22
2023-12-02T04:06:26.154Z,71.77
2023-12-02T04:08:52.899Z,72.04
2023-12-02T04:11:19.634Z,71.41
2023-12-02T04:13:46.385Z,71.26
2023-12-02T04:16:13.403Z,71.34
2023-12-02T04:18:40.340Z,71.27
2023-12-02T04:21:09.549Z,72.03
2023-12-02T04:23:38.208Z,71.63
2023-12-02T04:26:07.763Z,71.12
2023-12-02T04:28:35.013Z,71.55
2023-12-02T04:31:01.782Z,71.09
2023-12-02T04:33:28.552Z,71.26
2023-12-02T04:35:55.446Z,71.42
2023-12-02T04:38:22.602Z,71.16
2023-12-02T04:40:49.422Z,71.36
2023-12-02T04:43:16.170Z,71.38
2023-12-02T04:45:42.999Z,72.33
2023-12-02T04:48:09.844Z,72.82
2023-12-02T04:50:36.570Z,70.74
2023-12-02T04:53:03.264Z,71.77
2023-12-02T04:55:30.016Z,70.87
2023-12-02T04:57:56.742Z,70.30
2023-12-02T05:00:23.503Z,70.74
2023-12-02T05:02:50.313Z,70.81
2023-12-02T05:05:18.062Z,70.96
2023-12-02T05:07:45.628Z,71.04
2023-12-02T05:10:12.563Z,70.69
2023-12-02T05:12:39.488Z,70.87
2023-12-02T05:15:06.766Z,71.14
2023-12-02T05:17:33.919Z,70.45
2023-12-02T05:20:00.929Z,70.63
2023-12-02T05:22:27.759Z,70.44
2023-12-02T05:24:54.524Z,70.26
2023-12-02T05:27:21.307Z,70.80
2023-12-02T05:29:48.099Z,71.17
2023-12-02T05:32:14.991Z,71.16
2023-12-02T05:34:41.706Z,71.72
2023-12-02T05:37:08.447Z,71.69
2023-12-02T05:39:36.403Z,70.83
2023-12-02T05:42:03.430Z,71.61
2023-12-02T05:44:30.240Z,70.88
2023-12-02T05:46:57.062Z,70.63
2023-12-02T05:49:23.865Z,70.35
2023-12-02T05:51:50.717Z,71.48
2023-12-02T05:54:17.495Z,71.88
2023-12-02T05:56:44.226Z,70.95
2023-12-02T05:59:10.946Z,71.15
2023-12-02T06:01:37.763Z,71.66
2023-12-02T06:04:04.835Z,71.67
2023-12-02T06:06:32.273Z,71.27
2023-12-02T06:08:59.142Z,71.10
2023-12-02T06:11:25.900Z,71.58
2023-12-02T06:13:52.661Z,71.03
2023-12-02T06:16:19.418Z,70.69
2023-12-02T06:18:46.319Z,70.86
2023-12-02T06:21:13.669Z,70.52
2023-12-02T06:23:40.432Z,70.69
2023-12-02T06:26:07.747Z,70.68
2023-12-02T06:28:34.491Z,70.11
2023-12-02T06:31:01.191Z,71.38
2023-12-02T06:33:28.086Z,69.69
2023-12-02T06:35:54.860Z,69.99
2023-12-02T06:38:23.124Z,68.81
2023-12-02T06:40:50.127Z,68.13
2023-12-02T06:43:17.440Z,68.83
2023-12-02T06:45:44.256Z,69.40
2023-12-02T06:48:11.195Z,69.60
2023-12-02T06:50:38.005Z,69.31
2023-12-02T06:53:04.860Z,69.48
2023-12-02T06:55:34.346Z,69.21
2023-12-02T06:58:01.507Z,69.13
2023-12-02T07:00:28.298Z,68.66
2023-12-02T07:02:55.177Z,68.18
2023-12-02T07:05:21.971Z,67.57
2023-12-02T07:07:48.689Z,67.18
2023-12-02T07:10:15.680Z,67.37
2023-12-02T07:12:42.548Z,67.85
2023-12-02T07:15:09.880Z,67.45
2023-12-02T07:17:36.984Z,67.25
2023-12-02T07:20:04.583Z,67.11
2023-12-02T07:22:31.654Z,67.68
2023-12-02T07:24:58.943Z,67.83
2023-12-02T07:27:28.925Z,67.04
2023-12-02T07:32:26.392Z,67.54
2023-12-02T07:34:53.147Z,67.90
2023-12-02T07:37:19.901Z,67.06
2023-12-02T07:39:46.789Z,67.88
2023-12-02T07:42:13.616Z,67.69
2023-12-02T07:44:40.347Z,68.07
2023-12-02T07:47:07.301Z,67.99
2023-12-02T07:49:34.042Z,67.64
2023-12-02T07:52:00.850Z,68.02
2023-12-02T07:54:27.744Z,68.07
2023-12-02T07:56:54.529Z,67.65
2023-12-02T07:59:21.262Z,68.13
2023-12-02T08:01:48.244Z,67.00
2023-12-02T08:04:15.056Z,66.74
2023-12-02T08:06:41.735Z,67.17
2023-12-02T08:09:08.402Z,66.72
2023-12-02T08:11:35.101Z,67.38
2023-12-02T08:14:01.910Z,67.29
2023-12-02T08:16:29.599Z,67.63
2023-12-02T08:18:56.483Z,67.75
2023-12-02T08:21:23.444Z,67.70
2023-12-02T08:23:50.694Z,67.62
2023-12-02T08:26:17.424Z,67.00
2023-12-02T08:28:47.388Z,67.17
2023-12-02T08:31:14.458Z,67.48
2023-12-02T08:33:41.499Z,67.15
2023-12-02T08:36:09.067Z,67.41
2023-12-02T08:38:37.371Z,67.08
2023-12-02T08:41:04.718Z,66.46
2023-12-02T08:43:31.942Z,67.23
2023-12-02T08:45:58.671Z,67.34
2023-12-02T08:48:25.829Z,67.21
2023-12-02T08:50:52.847Z,67.92
2023-12-02T08:53:19.667Z,68.17
2023-12-02T08:55:46.497Z,68.93
2023-12-02T08:58:13.258Z,68.28
2023-12-02T09:00:40.023Z,68.88
2023-12-02T09:03:06.789Z,68.57
2023-12-02T09:05:33.544Z,68.41
2023-12-02T09:08:02.417Z,68.31
2023-12-02T09:10:29.385Z,68.48
2023-12-02T09:12:56.209Z,66.94
2023-12-02T09:15:23.035Z,66.75
2023-12-02T09:18:12.919Z,67.55
2023-12-02T09:20:52.041Z,68.05
2023-12-02T09:23:19.613Z,66.95
2023-12-02T09:25:47.297Z,67.24
2023-12-02T09:28:17.275Z,66.38
2023-12-02T09:31:06.911Z,67.47
2023-12-02T09:33:37.175Z,67.15
2023-12-02T09:36:04.799Z,66.79
2023-12-02T09:38:33.384Z,66.31
2023-12-02T09:41:25.191Z,68.11
2023-12-02T09:44:25.060Z,67.61
2023-12-02T09:47:18.892Z,65.11
2023-12-02T09:50:09.149Z,65.08
2023-12-02T09:53:07.274Z,65.21
2023-12-02T09:55:39.681Z,64.89
2023-12-02T09:58:28.835Z,64.52
2023-12-02T10:01:12.995Z,65.15
2023-12-02T10:03:56.283Z,64.99
2023-12-02T10:06:50.406Z,64.66
2023-12-02T10:09:36.830Z,64.24
2023-12-02T10:12:38.549Z,65.07
2023-12-02T10:15:06.864Z,64.82
2023-12-02T10:17:41.331Z,64.70
2023-12-02T10:20:13.746Z,64.18
2023-12-02T10:22:46.555Z,64.27
2023-12-02T10:25:29.972Z,65.42
2023-12-02T10:28:06.507Z,64.97
2023-12-02T10:30:35.652Z,64.79
2023-12-02T10:33:26.282Z,64.96
2023-12-02T10:35:57.091Z,64.40
2023-12-02T10:38:33.443Z,66.01
2023-12-02T10:41:14.010Z,65.14
2023-12-02T10:43:43.719Z,64.41
2023-12-02T10:46:11.989Z,65.12
2023-12-02T10:48:42.761Z,65.31
2023-12-02T10:51:10.691Z,64.99
2023-12-02T10:53:38.997Z,66.43
2023-12-02T10:56:14.615Z,64.76
2023-12-02T10:58:46.204Z,66.56
2023-12-02T11:01:19.575Z,66.10
2023-12-02T11:03:56.274Z,66.97
2023-12-02T11:06:32.426Z,68.22
2023-12-02T11:09:25.937Z,67.07
2023-12-02T11:12:10.422Z,66.64
2023-12-02T11:14:41.075Z,66.50
2023-12-02T11:17:24.310Z,64.93
2023-12-02T11:20:21.308Z,65.99
2023-12-02T11:23:25.972Z,66.26
2023-12-02T11:26:12.751Z,65.79
2023-12-02T11:29:19.140Z,66.20
2023-12-02T11:32:12.582Z,64.68
2023-12-02T11:35:08.906Z,66.44
2023-12-02T11:37:50.671Z,64.63
2023-12-02T11:40:46.885Z,66.40
2023-12-02T11:43:35.328Z,64.84
2023-12-02T11:46:15.715Z,63.39
2023-12-02T11:48:46.885Z,63.21
2023-12-02T11:51:24.129Z,63.25
2023-12-02T11:54:08.624Z,63.40
2023-12-02T11:56:35.767Z,61.89
2023-12-02T11:59:17.469Z,62.08
2023-12-02T12:02:16.814Z,61.76
2023-12-02T12:05:11.416Z,62.62
2023-12-02T12:08:16.039Z,61.55
2023-12-02T12:10:43.999Z,60.47
2023-12-02T12:13:12.870Z,60.03
2023-12-02T12:15:40.200Z,60.43
2023-12-02T12:18:07.219Z,59.88
2023-12-02T12:20:34.095Z,60.34
2023-12-02T12:23:01.981Z,59.90
2023-12-02T12:25:34.298Z,61.01
2023-12-02T12:28:06.150Z,61.24
2023-12-02T12:30:44.140Z,61.43
2023-12-02T12:33:30.288Z,61.30
2023-12-02T12:35:57.201Z,60.72
2023-12-02T12:38:23.960Z,60.07
2023-12-02T12:40:50.823Z,62.22
2023-12-02T12:43:18.695Z,61.92
2023-12-02T12:45:50.679Z,61.05
2023-12-02T12:48:27.202Z,61.84
2023-12-02T12:51:00.323Z,61.12
2023-12-02T12:53:31.388Z,61.35
2023-12-02T12:56:08.870Z,61.73
2023-12-02T12:58:54.983Z,62.43
2023-12-02T13:01:27.881Z,62.10
2023-12-02T13:04:05.381Z,61.26
2023-12-02T13:06:44.879Z,60.36
2023-12-02T13:09:13.574Z,60.95
2023-12-02T13:12:01.301Z,61.63
2023-12-02T13:14:34.866Z,61.72
2023-12-02T13:17:01.996Z,60.41
2023-12-02T13:19:30.951Z,60.83
2023-12-02T13:22:03.888Z,61.19
2023-12-02T13:24:37.330Z,61.43
2023-12-02T13:27:06.246Z,61.69
2023-12-02T13:29:35.657Z,60.57
2023-12-02T13:32:02.696Z,61.03
2023-12-02T13:34:50.497Z,60.56
2023-12-02T13:37:27.790Z,60.56
2023-12-02T13:40:00.030Z,59.72
2023-12-02T13:42:37.347Z,60.24
2023-12-02T13:45:08.538Z,59.60
2023-12-02T13:47:57.171Z,60.48
2023-12-02T13:50:26.718Z,60.04
2023-12-02T13:53:03.062Z,60.35
2023-12-02T13:55:43.333Z,59.62
2023-12-02T13:58:23.966Z,59.34
2023-12-02T14:01:17.898Z,58.05
2023-12-02T14:04:02.101Z,58.92
2023-12-02T14:06:59.875Z,59.27
2023-12-02T14:09:28.648Z,58.89
2023-12-02T14:12:24.598Z,59.51
2023-12-02T14:15:10.622Z,59.12
2023-12-02T14:18:15.527Z,58.70
2023-12-02T14:21:10.131Z,57.84
2023-12-02T14:24:08.859Z,57.38
2023-12-02T14:26:57.516Z,57.13
2023-12-02T14:29:39.042Z,56.57
2023-12-02T14:32:45.309Z,56.91
2023-12-02T14:35:48.736Z,56.80
2023-12-02T14:38:37.408Z,57.04
2023-12-02T14:41:30.718Z,57.43
2023-12-02T14:44:19.944Z,55.86
2023-12-02T14:46:54.607Z,57.01
2023-12-02T14:49:24.994Z,56.76
2023-12-02T14:51:55.938Z,56.55
2023-12-02T14:54:33.641Z,57.60
2023-12-02T14:57:30.747Z,57.88
2023-12-02T15:00:08.888Z,57.13
2023-12-02T15:02:41.122Z,57.11
2023-12-02T15:05:09.723Z,57.00
2023-12-02T15:07:50.875Z,56.73
2023-12-02T15:10:28.730Z,57.69
2023-12-02T15:13:01.683Z,57.27
2023-12-02T15:15:35.278Z,56.82
2023-12-02T15:18:04.524Z,57.56
2023-12-02T15:20:35.510Z,59.16
2023-12-02T15:23:17.889Z,58.37
2023-12-02T15:25:48.692Z,58.09
2023-12-02T15:28:30.974Z,57.93
2023-12-02T15:31:13.034Z,56.77
2023-12-02T15:33:41.891Z,56.87
2023-12-02T15:36:12.035Z,57.21
2023-12-02T15:38:39.106Z,58.07
2023-12-02T15:41:07.214Z,57.39
2023-12-02T15:43:34.352Z,57.33
2023-12-02T15:46:01.271Z,57.44
2023-12-02T15:48:28.466Z,56.87
2023-12-02T15:50:55.377Z,57.66
2023-12-02T15:53:23.818Z,57.16
2023-12-02T15:55:52.103Z,55.48
2023-12-02T15:58:19.361Z,56.21
2023-12-02T16:00:46.400Z,57.19
2023-12-02T16:03:13.421Z,58.22
2023-12-02T16:05:40.450Z,58.21
2023-12-02T16:08:08.838Z,57.36
2023-12-02T16:10:35.863Z,57.21
2023-12-02T16:13:03.601Z,57.23
2023-12-02T16:15:33.755Z,57.49
2023-12-02T16:18:01.449Z,58.84
2023-12-02T16:20:28.625Z,58.65
2023-12-02T16:22:55.659Z,58.41
2023-12-02T16:25:22.639Z,58.50
2023-12-02T16:27:50.144Z,57.90
2023-12-02T16:30:18.706Z,58.43
2023-12-02T16:32:46.609Z,59.16
2023-12-02T16:35:13.949Z,57.93
2023-12-02T16:37:41.219Z,57.52
2023-12-02T16:40:09.549Z,56.49
2023-12-02T16:42:37.043Z,57.78
2023-12-02T16:45:16.138Z,58.33
2023-12-02T16:47:49.838Z,58.16
2023-12-02T16:50:38.028Z,57.98
2023-12-02T16:53:04.813Z,58.40
2023-12-02T16:55:35.993Z,58.07
2023-12-02T16:58:05.813Z,58.50
2023-12-02T17:00:37.928Z,58.37
2023-12-02T17:03:06.194Z,58.06
2023-12-02T17:05:33.180Z,58.44
2023-12-02T17:08:05.874Z,58.79
2023-12-02T17:10:45.244Z,58.44
2023-12-02T17:13:25.672Z,58.25
2023-12-02T17:15:53.750Z,58.31
2023-12-02T17:18:39.320Z,58.65
2023-12-02T17:21:07.218Z,58.33
2023-12-02T17:23:37.576Z,58.39
2023-12-02T17:26:04.793Z,58.68
2023-12-02T17:28:35.544Z,59.18
2023-12-02T17:31:02.568Z,59.15
2023-12-02T17:33:29.468Z,58.85
2023-12-02T17:35:56.423Z,58.84
2023-12-02T17:38:23.345Z,60.47
2023-12-02T17:40:50.260Z,59.82
2023-12-02T17:43:17.178Z,59.34
2023-12-02T17:45:44.026Z,60.29
2023-12-02T17:48:11.001Z,60.18
2023-12-02T17:50:37.970Z,58.10
2023-12-02T17:53:05.229Z,59.22
2023-12-02T17:55:32.082Z,59.54
2023-12-02T17:57:58.915Z,60.42
2023-12-02T18:00:25.917Z,57.95
2023-12-02T18:02:52.975Z,59.26
2023-12-02T18:05:19.987Z,59.23
2023-12-02T18:07:46.898Z,59.45
2023-12-02T18:10:13.845Z,58.28
2023-12-02T18:12:40.844Z,57.46
2023-12-02T18:15:08.118Z,57.63
2023-12-02T18:17:35.163Z,59.41
2023-12-02T18:20:06.658Z,59.42
2023-12-02T18:22:36.926Z,59.62
2023-12-02T18:25:04.071Z,60.16
2023-12-02T18:27:31.078Z,58.34
2023-12-02T18:29:58.054Z,58.33
2023-12-02T18:32:25.158Z,60.11
2023-12-02T18:34:52.475Z,60.69
2023-12-02T18:37:19.372Z,58.84
2023-12-02T18:39:46.557Z,59.37
2023-12-02T18:42:13.530Z,59.63
2023-12-02T18:44:41.648Z,59.58
2023-12-02T18:47:08.665Z,59.82
2023-12-02T18:49:35.604Z,59.26
2023-12-02T18:52:02.436Z,59.94
2023-12-02T18:54:29.316Z,59.47
2023-12-02T18:56:57.164Z,59.22
2023-12-02T18:59:23.985Z,59.17
2023-12-02T19:01:50.909Z,59.63
2023-12-02T19:04:17.885Z,59.49
2023-12-02T19:06:44.851Z,59.41
2023-12-02T19:09:11.951Z,59.37
2023-12-02T19:11:39.300Z,59.53
2023-12-02T19:14:06.384Z,59.69
2023-12-02T19:16:33.303Z,59.42
2023-12-02T19:19:00.746Z,59.81
2023-12-02T19:21:28.537Z,59.65
2023-12-02T19:23:55.434Z,59.58
2023-12-02T19:26:26.140Z,59.27
2023-12-02T19:28:53.044Z,59.86
2023-12-02T19:31:20.017Z,60.18
2023-12-02T19:33:46.897Z,60.33
2023-12-02T19:36:14.102Z,59.46
2023-12-02T19:38:41.275Z,58.74
2023-12-02T19:41:08.403Z,59.64
2023-12-02T19:43:35.551Z,60.02
2023-12-02T19:46:02.513Z,60.29
2023-12-02T19:48:29.500Z,60.32
2023-12-02T19:50:56.728Z,59.85
2023-12-02T19:53:23.627Z,59.89
2023-12-02T19:55:51.076Z,59.16
2023-12-02T19:58:17.912Z,59.67
2023-12-02T20:00:44.926Z,58.67
2023-12-02T20:03:12.013Z,58.66
2023-12-02T20:05:39.018Z,59.96
2023-12-02T20:08:06.416Z,58.82
2023-12-02T20:10:33.525Z,59.21
2023-12-02T20:13:00.972Z,58.75
2023-12-02T20:15:27.903Z,59.04
2023-12-02T20:17:54.829Z,58.79
2023-12-02T20:20:22.470Z,58.87
2023-12-02T20:22:50.428Z,58.82
2023-12-02T20:25:21.059Z,58.72
2023-12-02T20:27:48.077Z,59.40
2023-12-02T20:30:15.856Z,57.75
2023-12-02T20:32:42.850Z,58.42
2023-12-02T20:35:09.958Z,59.19
2023-12-02T20:37:37.134Z,58.24
2023-12-02T20:40:04.756Z,58.74
2023-12-02T20:42:31.937Z,57.52
2023-12-02T20:44:59.104Z,57.75
2023-12-02T20:47:26.097Z,57.69
2023-12-02T20:49:53.015Z,57.88
2023-12-02T20:52:20.125Z,57.47
2023-12-02T20:54:46.943Z,56.82
2023-12-02T20:57:13.847Z,56.88
2023-12-02T20:59:40.810Z,57.53
2023-12-02T21:02:07.725Z,57.76
2023-12-02T21:04:34.652Z,58.53
2023-12-02T21:07:01.755Z,58.19
2023-12-02T21:09:28.534Z,58.89
2023-12-02T21:11:55.498Z,58.83
2023-12-02T21:14:22.578Z,59.81
2023-12-02T21:16:50.149Z,59.46
2023-12-02T21:19:18.349Z,58.89
2023-12-02T21:21:45.481Z,59.76
2023-12-02T21:24:13.639Z,59.28
2023-12-02T21:26:41.235Z,59.54
2023-12-02T21:29:09.490Z,59.75
2023-12-02T21:31:39.058Z,60.26
2023-12-02T21:34:09.318Z,60.38
2023-12-02T21:36:36.334Z,60.63
2023-12-02T21:39:03.371Z,61.46
2023-12-02T21:41:32.269Z,60.94
2023-12-02T21:43:59.291Z,60.71
2023-12-02T21:46:31.187Z,60.65
2023-12-02T21:49:00.624Z,60.98
2023-12-02T21:51:33.355Z,60.92
2023-12-02T21:54:05.412Z,61.80
2023-12-02T21:56:45.664Z,60.43
2023-12-02T21:59:22.102Z,60.57
2023-12-02T22:01:56.543Z,61.05
2023-12-02T22:04:40.113Z,60.10
2023-12-02T22:07:13.539Z,60.30
2023-12-02T22:09:41.391Z,60.65
2023-12-02T22:12:37.877Z,60.54
2023-12-02T22:15:22.245Z,60.88
2023-12-02T22:17:49.662Z,61.11
2023-12-02T22:20:21.858Z,60.84
2023-12-02T22:23:06.126Z,61.02
2023-12-02T22:25:32.855Z,61.09
2023-12-02T22:28:05.103Z,60.81
2023-12-02T22:30:45.997Z,60.29
2023-12-02T22:33:15.769Z,61.10
2023-12-02T22:35:53.969Z,61.19
2023-12-02T22:38:38.917Z,61.78
2023-12-02T22:41:08.313Z,61.60
2023-12-02T22:43:41.480Z,62.09
2023-12-02T22:46:08.554Z,61.61
2023-12-02T22:48:46.020Z,61.30
2023-12-02T22:51:36.360Z,61.62
2023-12-02T22:54:11.612Z,61.67
2023-12-02T22:56:38.804Z,62.10
2023-12-02T22:59:08.722Z,61.72
2023-12-02T23:01:38.184Z,62.05
2023-12-02T23:04:34.530Z,62.37
2023-12-02T23:07:21.312Z,61.51
2023-12-02T23:09:51.408Z,61.89
2023-12-02T23:12:36.768Z,62.40
2023-12-02T23:15:25.912Z,62.03
2023-12-02T23:17:53.722Z,61.88
2023-12-02T23:20:29.476Z,63.08
2023-12-02T23:22:57.021Z,61.49
2023-12-02T23:25:26.031Z,61.39
2023-12-02T23:27:54.203Z,61.82
2023-12-02T23:30:21.891Z,62.43
2023-12-02T23:32:49.294Z,62.51
2023-12-02T23:35:22.130Z,62.97
2023-12-02T23:37:50.758Z,63.59
2023-12-02T23:40:27.633Z,63.33
2023-12-02T23:42:58.320Z,63.77
2023-12-02T23:45:25.576Z,63.93
2023-12-02T23:47:53.279Z,62.95
2023-12-02T23:50:21.001Z,63.53
2023-12-02T23:52:48.347Z,63.45
2023-12-02T23:55:15.684Z,64.23
2023-12-02T23:57:43.607Z,64.06
